sensor_id;sensor_type;location;lat;lon;timestamp;temperature;humidity
74101;DHT22;62462;52.530;21.682;2022-12-07T00:03:42;4.30;86.20
74101;DHT22;62462;52.530;21.682;2022-12-07T00:06:10;4.30;86.20
74101;DHT22;62462;52.530;21.682;2022-12-07T00:08:37;4.30;86.10
74101;DHT22;62462;52.530;21.682;2022-12-07T00:11:05;4.30;86.10
74101;DHT22;62462;52.530;21.682;2022-12-07T00:13:32;4.30;86.10
74101;DHT22;62462;52.530;21.682;2022-12-07T00:16:04;4.30;86.20
74101;DHT22;62462;52.530;21.682;2022-12-07T00:18:30;4.30;86.00
74101;DHT22;62462;52.530;21.682;2022-12-07T00:21:01;4.30;86.00
74101;DHT22;62462;52.530;21.682;2022-12-07T00:23:27;4.30;86.00
74101;DHT22;62462;52.530;21.682;2022-12-07T00:25:53;4.30;85.90
74101;DHT22;62462;52.530;21.682;2022-12-07T00:28:19;4.30;85.90
74101;DHT22;62462;52.530;21.682;2022-12-07T00:30:44;4.30;85.90
74101;DHT22;62462;52.530;21.682;2022-12-07T00:33:10;4.30;85.90
74101;DHT22;62462;52.530;21.682;2022-12-07T00:35:35;4.30;86.00
74101;DHT22;62462;52.530;21.682;2022-12-07T00:38:01;4.30;86.00
74101;DHT22;62462;52.530;21.682;2022-12-07T00:40:27;4.30;85.80
74101;DHT22;62462;52.530;21.682;2022-12-07T00:42:52;4.30;85.70
74101;DHT22;62462;52.530;21.682;2022-12-07T00:45:18;4.30;85.80
74101;DHT22;62462;52.530;21.682;2022-12-07T00:47:44;4.30;85.80
74101;DHT22;62462;52.530;21.682;2022-12-07T00:50:09;4.30;85.90
74101;DHT22;62462;52.530;21.682;2022-12-07T00:52:35;4.30;85.90
74101;DHT22;62462;52.530;21.682;2022-12-07T00:55:01;4.40;85.70
74101;DHT22;62462;52.530;21.682;2022-12-07T00:57:26;4.40;85.70
74101;DHT22;62462;52.530;21.682;2022-12-07T00:59:52;4.40;85.60
74101;DHT22;62462;52.530;21.682;2022-12-07T01:02:21;4.30;85.60
74101;DHT22;62462;52.530;21.682;2022-12-07T01:04:46;4.30;85.70
74101;DHT22;62462;52.530;21.682;2022-12-07T01:07:12;4.30;85.60
74101;DHT22;62462;52.530;21.682;2022-12-07T01:09:38;4.30;85.90
74101;DHT22;62462;52.530;21.682;2022-12-07T01:12:04;4.30;86.00
74101;DHT22;62462;52.530;21.682;2022-12-07T01:14:29;4.30;86.10
74101;DHT22;62462;52.530;21.682;2022-12-07T01:16:55;4.20;86.20
74101;DHT22;62462;52.530;21.682;2022-12-07T01:19:21;4.20;86.60
74101;DHT22;62462;52.530;21.682;2022-12-07T01:21:46;4.10;87.00
74101;DHT22;62462;52.530;21.682;2022-12-07T01:24:12;4.00;87.50
74101;DHT22;62462;52.530;21.682;2022-12-07T01:26:38;4.00;87.70
74101;DHT22;62462;52.530;21.682;2022-12-07T01:29:03;4.00;87.90
74101;DHT22;62462;52.530;21.682;2022-12-07T01:31:29;4.00;88.00
74101;DHT22;62462;52.530;21.682;2022-12-07T01:33:58;3.90;88.20
74101;DHT22;62462;52.530;21.682;2022-12-07T01:36:29;3.80;88.50
74101;DHT22;62462;52.530;21.682;2022-12-07T01:38:57;3.80;88.90
74101;DHT22;62462;52.530;21.682;2022-12-07T01:41:26;3.80;89.10
74101;DHT22;62462;52.530;21.682;2022-12-07T01:49:28;3.80;88.80
74101;DHT22;62462;52.530;21.682;2022-12-07T01:52:03;3.70;88.90
74101;DHT22;62462;52.530;21.682;2022-12-07T01:54:32;3.60;89.40
74101;DHT22;62462;52.530;21.682;2022-12-07T01:56:59;3.50;89.80
74101;DHT22;62462;52.530;21.682;2022-12-07T01:59:26;3.50;90.00
74101;DHT22;62462;52.530;21.682;2022-12-07T02:01:53;3.60;90.00
74101;DHT22;62462;52.530;21.682;2022-12-07T02:04:21;3.70;89.80
74101;DHT22;62462;52.530;21.682;2022-12-07T02:06:48;3.60;89.40
74101;DHT22;62462;52.530;21.682;2022-12-07T02:09:14;3.60;89.50
74101;DHT22;62462;52.530;21.682;2022-12-07T02:11:40;3.60;89.60
74101;DHT22;62462;52.530;21.682;2022-12-07T02:14:06;3.60;89.70
74101;DHT22;62462;52.530;21.682;2022-12-07T02:27:52;3.50;89.60
74101;DHT22;62462;52.530;21.682;2022-12-07T02:30:22;3.50;89.60
74101;DHT22;62462;52.530;21.682;2022-12-07T02:33:08;3.60;89.80
74101;DHT22;62462;52.530;21.682;2022-12-07T02:35:44;3.60;89.60
74101;DHT22;62462;52.530;21.682;2022-12-07T02:43:24;3.60;89.30
74101;DHT22;62462;52.530;21.682;2022-12-07T02:46:10;3.70;89.40
74101;DHT22;62462;52.530;21.682;2022-12-07T02:48:38;3.70;89.00
74101;DHT22;62462;52.530;21.682;2022-12-07T02:51:05;3.70;88.90
74101;DHT22;62462;52.530;21.682;2022-12-07T03:04:32;3.80;88.80
74101;DHT22;62462;52.530;21.682;2022-12-07T03:06:59;3.80;88.30
74101;DHT22;62462;52.530;21.682;2022-12-07T03:09:37;3.80;88.30
74101;DHT22;62462;52.530;21.682;2022-12-07T03:12:19;3.70;88.70
74101;DHT22;62462;52.530;21.682;2022-12-07T03:14:56;3.70;89.00
74101;DHT22;62462;52.530;21.682;2022-12-07T03:17:28;3.70;89.20
74101;DHT22;62462;52.530;21.682;2022-12-07T03:19:58;3.60;89.10
74101;DHT22;62462;52.530;21.682;2022-12-07T03:22:29;3.60;89.40
74101;DHT22;62462;52.530;21.682;2022-12-07T03:25:03;3.60;89.40
74101;DHT22;62462;52.530;21.682;2022-12-07T03:30:03;3.60;89.10
74101;DHT22;62462;52.530;21.682;2022-12-07T03:32:31;3.60;89.30
74101;DHT22;62462;52.530;21.682;2022-12-07T03:35:07;3.60;89.50
74101;DHT22;62462;52.530;21.682;2022-12-07T03:37:41;3.60;89.50
74101;DHT22;62462;52.530;21.682;2022-12-07T03:42:49;3.60;89.50
74101;DHT22;62462;52.530;21.682;2022-12-07T03:45:16;3.70;89.60
74101;DHT22;62462;52.530;21.682;2022-12-07T03:48:05;3.70;89.70
74101;DHT22;62462;52.530;21.682;2022-12-07T03:50:54;3.60;89.60
74101;DHT22;62462;52.530;21.682;2022-12-07T03:53:40;3.70;89.70
74101;DHT22;62462;52.530;21.682;2022-12-07T03:56:08;3.70;89.60
74101;DHT22;62462;52.530;21.682;2022-12-07T03:58:35;3.70;89.70
74101;DHT22;62462;52.530;21.682;2022-12-07T04:01:01;3.70;89.50
74101;DHT22;62462;52.530;21.682;2022-12-07T04:03:27;3.70;89.40
74101;DHT22;62462;52.530;21.682;2022-12-07T04:05:53;3.70;89.60
74101;DHT22;62462;52.530;21.682;2022-12-07T04:08:19;3.70;89.50
74101;DHT22;62462;52.530;21.682;2022-12-07T04:10:44;3.70;89.60
74101;DHT22;62462;52.530;21.682;2022-12-07T04:13:10;3.70;89.20
74101;DHT22;62462;52.530;21.682;2022-12-07T04:15:36;3.70;89.20
74101;DHT22;62462;52.530;21.682;2022-12-07T04:18:01;3.70;89.20
74101;DHT22;62462;52.530;21.682;2022-12-07T04:20:27;3.70;89.40
74101;DHT22;62462;52.530;21.682;2022-12-07T04:22:53;3.70;89.30
74101;DHT22;62462;52.530;21.682;2022-12-07T04:25:18;3.60;89.30
74101;DHT22;62462;52.530;21.682;2022-12-07T04:27:44;3.50;89.40
74101;DHT22;62462;52.530;21.682;2022-12-07T04:30:10;3.60;89.90
74101;DHT22;62462;52.530;21.682;2022-12-07T04:32:36;3.60;89.70
74101;DHT22;62462;52.530;21.682;2022-12-07T04:35:02;3.70;89.40
74101;DHT22;62462;52.530;21.682;2022-12-07T04:37:28;3.60;89.10
74101;DHT22;62462;52.530;21.682;2022-12-07T04:39:54;3.70;89.30
74101;DHT22;62462;52.530;21.682;2022-12-07T04:42:19;3.70;89.20
74101;DHT22;62462;52.530;21.682;2022-12-07T04:44:45;3.70;89.00
74101;DHT22;62462;52.530;21.682;2022-12-07T04:47:11;3.70;88.70
74101;DHT22;62462;52.530;21.682;2022-12-07T04:49:37;3.70;88.70
74101;DHT22;62462;52.530;21.682;2022-12-07T04:52:02;3.60;89.00
74101;DHT22;62462;52.530;21.682;2022-12-07T04:54:28;3.50;89.40
74101;DHT22;62462;52.530;21.682;2022-12-07T04:56:54;3.50;89.80
74101;DHT22;62462;52.530;21.682;2022-12-07T04:59:19;3.40;89.90
74101;DHT22;62462;52.530;21.682;2022-12-07T05:01:45;3.50;89.90
74101;DHT22;62462;52.530;21.682;2022-12-07T05:04:11;3.40;89.90
74101;DHT22;62462;52.530;21.682;2022-12-07T05:06:36;3.40;89.90
74101;DHT22;62462;52.530;21.682;2022-12-07T05:09:03;3.40;90.00
74101;DHT22;62462;52.530;21.682;2022-12-07T05:11:29;3.40;90.00
74101;DHT22;62462;52.530;21.682;2022-12-07T05:14:11;3.30;90.10
74101;DHT22;62462;52.530;21.682;2022-12-07T05:16:39;3.30;90.20
74101;DHT22;62462;52.530;21.682;2022-12-07T05:19:05;3.30;90.30
74101;DHT22;62462;52.530;21.682;2022-12-07T05:21:31;3.20;90.40
74101;DHT22;62462;52.530;21.682;2022-12-07T05:23:56;3.30;90.50
74101;DHT22;62462;52.530;21.682;2022-12-07T05:26:22;3.30;90.50
74101;DHT22;62462;52.530;21.682;2022-12-07T05:28:55;3.30;90.50
74101;DHT22;62462;52.530;21.682;2022-12-07T05:31:22;3.30;90.40
74101;DHT22;62462;52.530;21.682;2022-12-07T05:33:48;3.30;90.40
74101;DHT22;62462;52.530;21.682;2022-12-07T05:36:14;3.30;90.40
74101;DHT22;62462;52.530;21.682;2022-12-07T05:38:40;3.30;90.40
74101;DHT22;62462;52.530;21.682;2022-12-07T05:41:06;3.40;90.30
74101;DHT22;62462;52.530;21.682;2022-12-07T05:43:33;3.50;90.10
74101;DHT22;62462;52.530;21.682;2022-12-07T05:45:59;3.40;90.00
74101;DHT22;62462;52.530;21.682;2022-12-07T05:48:25;3.40;90.20
74101;DHT22;62462;52.530;21.682;2022-12-07T05:50:51;3.30;90.20
74101;DHT22;62462;52.530;21.682;2022-12-07T05:53:18;3.40;90.20
74101;DHT22;62462;52.530;21.682;2022-12-07T05:55:44;3.40;90.20
74101;DHT22;62462;52.530;21.682;2022-12-07T05:58:10;3.40;90.20
74101;DHT22;62462;52.530;21.682;2022-12-07T06:00:55;3.40;90.10
74101;DHT22;62462;52.530;21.682;2022-12-07T06:03:21;3.50;90.10
74101;DHT22;62462;52.530;21.682;2022-12-07T06:05:47;3.50;90.00
74101;DHT22;62462;52.530;21.682;2022-12-07T06:08:13;3.50;89.90
74101;DHT22;62462;52.530;21.682;2022-12-07T06:10:40;3.50;89.80
74101;DHT22;62462;52.530;21.682;2022-12-07T06:13:07;3.50;89.70
74101;DHT22;62462;52.530;21.682;2022-12-07T06:15:35;3.50;89.80
74101;DHT22;62462;52.530;21.682;2022-12-07T06:18:01;3.50;90.00
74101;DHT22;62462;52.530;21.682;2022-12-07T06:20:27;3.50;90.00
74101;DHT22;62462;52.530;21.682;2022-12-07T06:22:53;3.50;90.00
74101;DHT22;62462;52.530;21.682;2022-12-07T06:25:18;3.50;89.90
74101;DHT22;62462;52.530;21.682;2022-12-07T06:27:44;3.50;89.80
74101;DHT22;62462;52.530;21.682;2022-12-07T06:30:10;3.50;89.80
74101;DHT22;62462;52.530;21.682;2022-12-07T06:32:37;3.40;89.90
74101;DHT22;62462;52.530;21.682;2022-12-07T06:35:03;3.40;90.00
74101;DHT22;62462;52.530;21.682;2022-12-07T06:37:29;3.30;90.10
74101;DHT22;62462;52.530;21.682;2022-12-07T06:39:54;3.30;90.30
74101;DHT22;62462;52.530;21.682;2022-12-07T06:42:20;3.20;90.40
74101;DHT22;62462;52.530;21.682;2022-12-07T06:44:46;3.30;90.50
74101;DHT22;62462;52.530;21.682;2022-12-07T06:47:12;3.30;90.40
74101;DHT22;62462;52.530;21.682;2022-12-07T06:49:37;3.30;90.30
74101;DHT22;62462;52.530;21.682;2022-12-07T06:52:03;3.30;90.30
74101;DHT22;62462;52.530;21.682;2022-12-07T06:54:31;3.30;90.40
74101;DHT22;62462;52.530;21.682;2022-12-07T06:56:57;3.30;90.30
74101;DHT22;62462;52.530;21.682;2022-12-07T06:59:22;3.40;90.40
74101;DHT22;62462;52.530;21.682;2022-12-07T07:01:48;3.40;90.30
74101;DHT22;62462;52.530;21.682;2022-12-07T07:04:14;3.40;90.30
74101;DHT22;62462;52.530;21.682;2022-12-07T07:06:39;3.40;90.50
74101;DHT22;62462;52.530;21.682;2022-12-07T07:09:05;3.40;90.20
74101;DHT22;62462;52.530;21.682;2022-12-07T07:11:31;3.40;90.30
74101;DHT22;62462;52.530;21.682;2022-12-07T07:13:57;3.50;90.30
74101;DHT22;62462;52.530;21.682;2022-12-07T07:16:27;3.50;90.10
74101;DHT22;62462;52.530;21.682;2022-12-07T07:18:54;3.50;90.00
74101;DHT22;62462;52.530;21.682;2022-12-07T07:21:19;3.50;90.00
74101;DHT22;62462;52.530;21.682;2022-12-07T07:23:45;3.40;90.10
74101;DHT22;62462;52.530;21.682;2022-12-07T07:26:11;3.40;90.30
74101;DHT22;62462;52.530;21.682;2022-12-07T07:28:36;3.40;90.30
74101;DHT22;62462;52.530;21.682;2022-12-07T07:31:02;3.40;90.30
74101;DHT22;62462;52.530;21.682;2022-12-07T07:33:28;3.50;90.60
74101;DHT22;62462;52.530;21.682;2022-12-07T07:35:53;3.60;90.10
74101;DHT22;62462;52.530;21.682;2022-12-07T07:38:19;3.50;90.00
74101;DHT22;62462;52.530;21.682;2022-12-07T07:40:45;3.50;90.10
74101;DHT22;62462;52.530;21.682;2022-12-07T07:43:11;3.50;90.10
74101;DHT22;62462;52.530;21.682;2022-12-07T07:45:37;3.50;90.20
74101;DHT22;62462;52.530;21.682;2022-12-07T07:48:03;3.40;90.30
74101;DHT22;62462;52.530;21.682;2022-12-07T07:50:28;3.40;90.30
74101;DHT22;62462;52.530;21.682;2022-12-07T07:52:55;3.40;90.30
74101;DHT22;62462;52.530;21.682;2022-12-07T07:55:21;3.50;90.20
74101;DHT22;62462;52.530;21.682;2022-12-07T07:57:47;3.60;90.10
74101;DHT22;62462;52.530;21.682;2022-12-07T08:00:14;3.50;90.00
74101;DHT22;62462;52.530;21.682;2022-12-07T08:02:40;3.50;90.00
74101;DHT22;62462;52.530;21.682;2022-12-07T08:05:08;3.40;90.20
74101;DHT22;62462;52.530;21.682;2022-12-07T08:07:34;3.40;90.30
74101;DHT22;62462;52.530;21.682;2022-12-07T08:09:59;3.50;90.30
74101;DHT22;62462;52.530;21.682;2022-12-07T08:12:25;3.50;90.10
74101;DHT22;62462;52.530;21.682;2022-12-07T08:14:51;3.50;90.10
74101;DHT22;62462;52.530;21.682;2022-12-07T08:17:16;3.50;90.10
74101;DHT22;62462;52.530;21.682;2022-12-07T08:19:42;3.50;90.10
74101;DHT22;62462;52.530;21.682;2022-12-07T08:22:08;3.60;90.00
74101;DHT22;62462;52.530;21.682;2022-12-07T08:24:35;3.50;89.70
74101;DHT22;62462;52.530;21.682;2022-12-07T08:27:01;3.50;89.80
74101;DHT22;62462;52.530;21.682;2022-12-07T08:29:27;3.40;89.80
74101;DHT22;62462;52.530;21.682;2022-12-07T08:31:52;3.40;90.20
74101;DHT22;62462;52.530;21.682;2022-12-07T08:34:18;3.40;90.20
74101;DHT22;62462;52.530;21.682;2022-12-07T08:36:44;3.50;90.10
74101;DHT22;62462;52.530;21.682;2022-12-07T08:39:10;3.60;89.70
74101;DHT22;62462;52.530;21.682;2022-12-07T08:41:36;3.60;89.20
74101;DHT22;62462;52.530;21.682;2022-12-07T08:44:02;3.50;89.60
74101;DHT22;62462;52.530;21.682;2022-12-07T08:46:46;3.50;89.70
74101;DHT22;62462;52.530;21.682;2022-12-07T08:49:26;3.50;89.40
74101;DHT22;62462;52.530;21.682;2022-12-07T08:51:53;3.50;89.40
74101;DHT22;62462;52.530;21.682;2022-12-07T08:54:20;3.40;89.30
74101;DHT22;62462;52.530;21.682;2022-12-07T08:56:47;3.40;89.70
74101;DHT22;62462;52.530;21.682;2022-12-07T08:59:14;3.40;89.60
74101;DHT22;62462;52.530;21.682;2022-12-07T09:01:42;3.40;89.70
74101;DHT22;62462;52.530;21.682;2022-12-07T09:04:08;3.40;89.70
74101;DHT22;62462;52.530;21.682;2022-12-07T09:06:34;3.40;89.80
74101;DHT22;62462;52.530;21.682;2022-12-07T09:09:01;3.40;89.90
74101;DHT22;62462;52.530;21.682;2022-12-07T09:11:27;3.40;90.00
74101;DHT22;62462;52.530;21.682;2022-12-07T09:13:53;3.40;90.00
74101;DHT22;62462;52.530;21.682;2022-12-07T09:16:18;3.40;90.00
74101;DHT22;62462;52.530;21.682;2022-12-07T09:18:44;3.40;89.90
74101;DHT22;62462;52.530;21.682;2022-12-07T09:21:10;3.40;89.90
74101;DHT22;62462;52.530;21.682;2022-12-07T09:23:36;3.50;90.00
74101;DHT22;62462;52.530;21.682;2022-12-07T09:26:03;3.50;90.00
74101;DHT22;62462;52.530;21.682;2022-12-07T09:28:30;3.50;89.90
74101;DHT22;62462;52.530;21.682;2022-12-07T09:30:56;3.50;89.90
74101;DHT22;62462;52.530;21.682;2022-12-07T09:33:21;3.40;90.00
74101;DHT22;62462;52.530;21.682;2022-12-07T09:35:49;3.40;90.10
74101;DHT22;62462;52.530;21.682;2022-12-07T09:38:15;3.30;90.20
74101;DHT22;62462;52.530;21.682;2022-12-07T09:40:41;3.30;90.40
74101;DHT22;62462;52.530;21.682;2022-12-07T09:43:18;3.40;90.40
74101;DHT22;62462;52.530;21.682;2022-12-07T09:45:46;3.40;90.20
74101;DHT22;62462;52.530;21.682;2022-12-07T09:48:29;3.40;90.20
74101;DHT22;62462;52.530;21.682;2022-12-07T09:50:58;3.30;90.60
74101;DHT22;62462;52.530;21.682;2022-12-07T09:53:28;3.20;90.80
74101;DHT22;62462;52.530;21.682;2022-12-07T09:55:54;3.20;91.00
74101;DHT22;62462;52.530;21.682;2022-12-07T09:58:26;3.20;91.10
74101;DHT22;62462;52.530;21.682;2022-12-07T10:03:37;3.40;91.10
74101;DHT22;62462;52.530;21.682;2022-12-07T10:06:04;3.40;91.10
74101;DHT22;62462;52.530;21.682;2022-12-07T10:08:31;3.50;91.10
74101;DHT22;62462;52.530;21.682;2022-12-07T10:10:58;3.50;91.10
74101;DHT22;62462;52.530;21.682;2022-12-07T10:13:46;3.50;91.10
74101;DHT22;62462;52.530;21.682;2022-12-07T10:16:38;3.60;91.00
74101;DHT22;62462;52.530;21.682;2022-12-07T10:19:27;3.70;91.00
74101;DHT22;62462;52.530;21.682;2022-12-07T10:22:20;3.70;91.20
74101;DHT22;62462;52.530;21.682;2022-12-07T10:24:47;3.80;90.70
74101;DHT22;62462;52.530;21.682;2022-12-07T10:27:22;3.90;90.40
74101;DHT22;62462;52.530;21.682;2022-12-07T10:29:52;4.00;90.30
74101;DHT22;62462;52.530;21.682;2022-12-07T10:34:44;3.90;90.30
74101;DHT22;62462;52.530;21.682;2022-12-07T10:39:50;3.90;90.10
74101;DHT22;62462;52.530;21.682;2022-12-07T10:42:21;3.90;90.00
74101;DHT22;62462;52.530;21.682;2022-12-07T10:44:49;3.90;89.80
74101;DHT22;62462;52.530;21.682;2022-12-07T10:48:02;3.90;89.70
74101;DHT22;62462;52.530;21.682;2022-12-07T11:08:01;3.90;87.80
74101;DHT22;62462;52.530;21.682;2022-12-07T11:10:22;3.90;88.10
74101;DHT22;62462;52.530;21.682;2022-12-07T11:13:15;3.90;88.30
74101;DHT22;62462;52.530;21.682;2022-12-07T11:18:29;4.10;88.00
74101;DHT22;62462;52.530;21.682;2022-12-07T11:21:05;4.10;87.60
74101;DHT22;62462;52.530;21.682;2022-12-07T11:23:46;4.00;87.40
74101;DHT22;62462;52.530;21.682;2022-12-07T11:35:02;4.20;87.40
74101;DHT22;62462;52.530;21.682;2022-12-07T11:37:35;4.20;86.90
74101;DHT22;62462;52.530;21.682;2022-12-07T11:45:42;4.10;86.20
74101;DHT22;62462;52.530;21.682;2022-12-07T11:50:54;4.10;87.00
74101;DHT22;62462;52.530;21.682;2022-12-07T11:53:28;4.10;86.40
74101;DHT22;62462;52.530;21.682;2022-12-07T11:56:03;4.10;85.90
74101;DHT22;62462;52.530;21.682;2022-12-07T12:03:54;4.10;86.20
74101;DHT22;62462;52.530;21.682;2022-12-07T12:06:20;4.10;85.70
74101;DHT22;62462;52.530;21.682;2022-12-07T12:08:59;4.10;85.50
74101;DHT22;62462;52.530;21.682;2022-12-07T12:20:26;4.10;85.80
74101;DHT22;62462;52.530;21.682;2022-12-07T12:23:43;4.10;86.40
74101;DHT22;62462;52.530;21.682;2022-12-07T12:25:54;4.20;85.70
74101;DHT22;62462;52.530;21.682;2022-12-07T12:33:50;4.20;85.20
74101;DHT22;62462;52.530;21.682;2022-12-07T12:36:18;4.20;85.10
74101;DHT22;62462;52.530;21.682;2022-12-07T12:47:43;4.20;84.80
74101;DHT22;62462;52.530;21.682;2022-12-07T12:50:13;4.30;84.40
74101;DHT22;62462;52.530;21.682;2022-12-07T12:57:35;4.90;81.40
74101;DHT22;62462;52.530;21.682;2022-12-07T13:02:54;4.70;82.10
74101;DHT22;62462;52.530;21.682;2022-12-07T13:05:23;4.70;82.60
74101;DHT22;62462;52.530;21.682;2022-12-07T13:08:14;4.60;82.90
74101;DHT22;62462;52.530;21.682;2022-12-07T13:10:45;4.50;83.60
74101;DHT22;62462;52.530;21.682;2022-12-07T13:26:18;4.50;84.90
74101;DHT22;62462;52.530;21.682;2022-12-07T13:29:37;4.50;84.40
74101;DHT22;62462;52.530;21.682;2022-12-07T13:31:47;4.60;85.00
74101;DHT22;62462;52.530;21.682;2022-12-07T13:34:37;4.60;84.20
74101;DHT22;62462;52.530;21.682;2022-12-07T13:37:15;4.60;84.20
74101;DHT22;62462;52.530;21.682;2022-12-07T13:42:24;4.60;84.00
74101;DHT22;62462;52.530;21.682;2022-12-07T13:44:50;4.60;84.30
74101;DHT22;62462;52.530;21.682;2022-12-07T13:47:35;4.70;84.00
74101;DHT22;62462;52.530;21.682;2022-12-07T13:52:50;4.70;84.20
74101;DHT22;62462;52.530;21.682;2022-12-07T13:55:20;4.70;83.70
74101;DHT22;62462;52.530;21.682;2022-12-07T13:57:51;4.70;83.70
74101;DHT22;62462;52.530;21.682;2022-12-07T14:00:24;4.70;84.00
74101;DHT22;62462;52.530;21.682;2022-12-07T14:03:00;4.60;84.20
74101;DHT22;62462;52.530;21.682;2022-12-07T14:05:28;4.60;84.50
74101;DHT22;62462;52.530;21.682;2022-12-07T14:08:03;4.60;84.80
74101;DHT22;62462;52.530;21.682;2022-12-07T14:10:33;4.50;84.80
74101;DHT22;62462;52.530;21.682;2022-12-07T14:13:00;4.60;85.00
74101;DHT22;62462;52.530;21.682;2022-12-07T14:15:31;4.60;84.90
74101;DHT22;62462;52.530;21.682;2022-12-07T14:17:59;4.60;84.80
74101;DHT22;62462;52.530;21.682;2022-12-07T14:20:39;4.60;84.90
74101;DHT22;62462;52.530;21.682;2022-12-07T14:23:25;4.60;84.90
74101;DHT22;62462;52.530;21.682;2022-12-07T14:25:52;4.60;85.10
74101;DHT22;62462;52.530;21.682;2022-12-07T14:28:44;4.60;85.10
74101;DHT22;62462;52.530;21.682;2022-12-07T14:31:16;4.60;85.10
74101;DHT22;62462;52.530;21.682;2022-12-07T14:33:42;4.70;85.10
74101;DHT22;62462;52.530;21.682;2022-12-07T14:36:13;4.70;85.30
74101;DHT22;62462;52.530;21.682;2022-12-07T14:38:39;4.70;85.40
74101;DHT22;62462;52.530;21.682;2022-12-07T14:41:13;4.70;85.50
74101;DHT22;62462;52.530;21.682;2022-12-07T14:43:59;4.60;85.70
74101;DHT22;62462;52.530;21.682;2022-12-07T14:46:25;4.50;86.10
74101;DHT22;62462;52.530;21.682;2022-12-07T14:48:51;4.50;86.60
74101;DHT22;62462;52.530;21.682;2022-12-07T14:51:16;4.40;86.90
74101;DHT22;62462;52.530;21.682;2022-12-07T14:53:48;4.40;87.10
74101;DHT22;62462;52.530;21.682;2022-12-07T14:56:15;4.40;87.30
74101;DHT22;62462;52.530;21.682;2022-12-07T14:58:41;4.40;87.40
74101;DHT22;62462;52.530;21.682;2022-12-07T15:01:06;4.30;87.40
74101;DHT22;62462;52.530;21.682;2022-12-07T15:03:32;4.30;87.70
74101;DHT22;62462;52.530;21.682;2022-12-07T15:06:00;4.20;88.00
74101;DHT22;62462;52.530;21.682;2022-12-07T15:08:26;4.20;88.00
74101;DHT22;62462;52.530;21.682;2022-12-07T15:10:52;4.20;88.10
74101;DHT22;62462;52.530;21.682;2022-12-07T15:13:18;4.20;87.60
74101;DHT22;62462;52.530;21.682;2022-12-07T15:16:02;4.20;87.60
74101;DHT22;62462;52.530;21.682;2022-12-07T15:18:28;4.10;88.00
74101;DHT22;62462;52.530;21.682;2022-12-07T15:20:53;4.10;88.30
74101;DHT22;62462;52.530;21.682;2022-12-07T15:23:19;4.10;88.20
74101;DHT22;62462;52.530;21.682;2022-12-07T15:25:46;4.10;88.00
74101;DHT22;62462;52.530;21.682;2022-12-07T15:28:13;4.10;87.80
74101;DHT22;62462;52.530;21.682;2022-12-07T15:30:40;4.10;88.00
74101;DHT22;62462;52.530;21.682;2022-12-07T15:33:06;3.90;87.90
74101;DHT22;62462;52.530;21.682;2022-12-07T15:35:32;3.90;88.20
74101;DHT22;62462;52.530;21.682;2022-12-07T15:37:57;3.90;88.20
74101;DHT22;62462;52.530;21.682;2022-12-07T15:40:23;3.90;88.20
74101;DHT22;62462;52.530;21.682;2022-12-07T15:42:48;3.90;88.30
74101;DHT22;62462;52.530;21.682;2022-12-07T15:45:14;3.90;88.10
74101;DHT22;62462;52.530;21.682;2022-12-07T15:47:42;3.90;87.80
74101;DHT22;62462;52.530;21.682;2022-12-07T15:50:10;3.90;88.00
74101;DHT22;62462;52.530;21.682;2022-12-07T15:52:37;3.90;88.00
74101;DHT22;62462;52.530;21.682;2022-12-07T15:55:03;3.90;88.00
74101;DHT22;62462;52.530;21.682;2022-12-07T15:57:30;3.90;88.00
74101;DHT22;62462;52.530;21.682;2022-12-07T15:59:56;3.80;87.90
74101;DHT22;62462;52.530;21.682;2022-12-07T16:02:22;3.80;87.70
74101;DHT22;62462;52.530;21.682;2022-12-07T16:04:49;3.70;87.80
74101;DHT22;62462;52.530;21.682;2022-12-07T16:07:15;3.70;88.20
74101;DHT22;62462;52.530;21.682;2022-12-07T16:09:42;3.70;88.10
74101;DHT22;62462;52.530;21.682;2022-12-07T16:12:08;3.60;88.20
74101;DHT22;62462;52.530;21.682;2022-12-07T16:14:35;3.70;88.30
74101;DHT22;62462;52.530;21.682;2022-12-07T16:17:00;3.70;87.90
74101;DHT22;62462;52.530;21.682;2022-12-07T16:19:26;3.70;87.90
74101;DHT22;62462;52.530;21.682;2022-12-07T16:21:53;3.70;88.00
74101;DHT22;62462;52.530;21.682;2022-12-07T16:24:19;3.70;88.00
74101;DHT22;62462;52.530;21.682;2022-12-07T16:26:44;3.70;87.90
74101;DHT22;62462;52.530;21.682;2022-12-07T16:29:12;3.70;87.70
74101;DHT22;62462;52.530;21.682;2022-12-07T16:31:38;3.70;87.80
74101;DHT22;62462;52.530;21.682;2022-12-07T16:34:03;3.70;87.80
74101;DHT22;62462;52.530;21.682;2022-12-07T16:36:29;3.70;87.90
74101;DHT22;62462;52.530;21.682;2022-12-07T16:38:55;3.70;87.80
74101;DHT22;62462;52.530;21.682;2022-12-07T16:41:21;3.60;88.00
74101;DHT22;62462;52.530;21.682;2022-12-07T16:43:46;3.70;88.20
74101;DHT22;62462;52.530;21.682;2022-12-07T16:46:12;3.70;88.00
74101;DHT22;62462;52.530;21.682;2022-12-07T16:48:39;3.70;88.00
74101;DHT22;62462;52.530;21.682;2022-12-07T16:51:07;3.70;87.80
74101;DHT22;62462;52.530;21.682;2022-12-07T16:53:35;3.70;87.80
74101;DHT22;62462;52.530;21.682;2022-12-07T16:56:01;3.80;87.90
74101;DHT22;62462;52.530;21.682;2022-12-07T16:58:27;3.70;87.70
74101;DHT22;62462;52.530;21.682;2022-12-07T17:00:52;3.70;88.10
74101;DHT22;62462;52.530;21.682;2022-12-07T17:03:18;3.70;88.10
74101;DHT22;62462;52.530;21.682;2022-12-07T17:05:45;3.80;87.90
74101;DHT22;62462;52.530;21.682;2022-12-07T17:08:12;3.80;87.50
74101;DHT22;62462;52.530;21.682;2022-12-07T17:10:40;3.80;87.70
74101;DHT22;62462;52.530;21.682;2022-12-07T17:13:07;3.80;87.90
74101;DHT22;62462;52.530;21.682;2022-12-07T17:16:05;3.80;88.00
74101;DHT22;62462;52.530;21.682;2022-12-07T17:18:34;3.80;88.00
74101;DHT22;62462;52.530;21.682;2022-12-07T17:21:04;3.90;87.90
74101;DHT22;62462;52.530;21.682;2022-12-07T17:23:31;3.80;87.90
74101;DHT22;62462;52.530;21.682;2022-12-07T17:26:07;3.80;88.00
74101;DHT22;62462;52.530;21.682;2022-12-07T17:28:34;3.80;88.30
74101;DHT22;62462;52.530;21.682;2022-12-07T17:31:00;3.80;88.10
74101;DHT22;62462;52.530;21.682;2022-12-07T17:33:26;3.80;88.20
74101;DHT22;62462;52.530;21.682;2022-12-07T17:35:52;3.80;88.50
74101;DHT22;62462;52.530;21.682;2022-12-07T17:38:17;3.80;88.50
74101;DHT22;62462;52.530;21.682;2022-12-07T17:40:43;3.80;88.30
74101;DHT22;62462;52.530;21.682;2022-12-07T17:43:09;3.90;88.30
74101;DHT22;62462;52.530;21.682;2022-12-07T17:45:36;3.90;88.30
74101;DHT22;62462;52.530;21.682;2022-12-07T17:48:03;3.90;88.30
74101;DHT22;62462;52.530;21.682;2022-12-07T17:50:29;3.90;88.10
74101;DHT22;62462;52.530;21.682;2022-12-07T17:53:13;3.90;88.30
74101;DHT22;62462;52.530;21.682;2022-12-07T17:55:39;3.90;88.20
74101;DHT22;62462;52.530;21.682;2022-12-07T17:58:05;3.90;88.10
74101;DHT22;62462;52.530;21.682;2022-12-07T18:00:31;3.80;88.30